Wilson Dublin — V2FV4 — position and weather

sailwx.info

Track history (hours):
 
Tides and Currents Weather Stations Pressure Air Temp Water Temp Dewpoint Dewpoint Depression Visibility Wind Speed Wind Dir Waves Ship Positions

Wilson Dublin

Last reported at 2017-Nov-20 00:30 UTC. Time now 2017-Nov-20 06:06 UTC.
Position N 53°19' E 006°55'.

Length 88 m; draft 4.9 m.

Type: Cargo ship. MMSI: 305812000.

Date/timePositionNaut miles runAvg speedWind from/ knotsBaromVisibWave heightAir tempDewpointWater temp
2017-Nov-20 00:30N 53°19' E 006°55'1 1.1
2017-Nov-20 00:00N 53°19' E 006°56'1 1.5
2017-Nov-19 23:30N 53°19' E 006°56'0 0.9
2017-Nov-19 23:00N 53°19' E 006°57'2 3.8
2017-Nov-19 22:30N 53°20' E 007°00'811.3
2017-Nov-19 21:48N 53°27' E 006°54'  
2017-Nov-17 02:30N 61°54' E 004°25'3 5.1
2017-Nov-17 02:00N 61°56' E 004°27'3 5.5
2017-Nov-17 01:30N 61°59' E 004°28'3 5.2
2017-Nov-17 01:00N 62°01' E 004°30'3 5.1
2017-Nov-17 00:30N 62°03' E 004°33'2 4.9
2017-Nov-17 00:00N 62°05' E 004°37'2 4.7
2017-Nov-16 23:30N 62°07' E 004°40'2 4.7
2017-Nov-16 23:00N 62°09' E 004°43'2 4.5
2017-Nov-16 22:30N 62°11' E 004°46'2 4.5
2017-Nov-16 22:00N 62°12' E 004°49'2 4.4
2017-Nov-16 21:30N 62°14' E 004°51'2 4.7
2017-Nov-16 21:00N 62°16' E 004°55'2 4.5
2017-Nov-16 20:30N 62°17' E 004°58'2 4.5
2017-Nov-16 20:00N 62°19' E 005°01'3 5.1
2017-Nov-16 19:30N 62°21' E 005°05'3 5.3
2017-Nov-16 19:00N 62°22' E 005°10'3 6.3
2017-Nov-16 18:30N 62°24' E 005°16'3 6.6
2017-Nov-16 18:00N 62°26' E 005°22'3 5.9
2017-Nov-16 17:30N 62°27' E 005°27'3 6.7
2017-Nov-16 17:00N 62°29' E 005°34'3 7.1
2017-Nov-16 16:30N 62°31' E 005°40'4 8.1
2017-Nov-16 16:01N 62°29' E 005°48'4 8.8
2017-Nov-16 15:30N 62°27' E 005°57'4 7.3
2017-Nov-16 15:00N 62°28' E 006°04'4 8.5
2017-Nov-16 14:30N 62°32' E 006°09'4 8.6
2017-Nov-16 14:01N 62°35' E 006°15'4 8.1
2017-Nov-16 13:31N 62°38' E 006°22'5 9.7
2017-Nov-16 13:00N 62°38' E 006°33'510.1
2017-Nov-16 12:30N 62°40' E 006°43'510.2
2017-Nov-16 12:00N 62°41' E 006°54'510.2
2017-Nov-16 11:30N 62°43' E 007°04'3 6.8
2017-Nov-16 11:00N 62°44' E 007°11'0 0.0
2017-Nov-16 10:30N 62°44' E 007°11'0 0.0
2017-Nov-16 09:57N 62°44' E 007°11'0 0.0
2017-Nov-16 09:30N 62°44' E 007°11'0 0.0
2017-Nov-16 08:57N 62°44' E 007°11'0 0.0
2017-Nov-16 08:30N 62°44' E 007°11'0 0.0
2017-Nov-16 07:57N 62°44' E 007°11'0 0.0
2017-Nov-16 07:30N 62°44' E 007°11'0 0.0
2017-Nov-16 07:00N 62°44' E 007°11'0 0.0
2017-Nov-16 06:27N 62°44' E 007°11'0 0.0
2017-Nov-16 06:00N 62°44' E 007°11'0 0.0
2017-Nov-16 05:30N 62°44' E 007°11'0 0.0
2017-Nov-16 05:00N 62°44' E 007°11'0 0.0
2017-Nov-16 04:30N 62°44' E 007°11'0 0.0
2017-Nov-16 03:57N 62°44' E 007°11'0 0.0
2017-Nov-16 03:30N 62°44' E 007°11'0 0.0
2017-Nov-16 03:00N 62°44' E 007°11'0 0.0
2017-Nov-16 02:30N 62°44' E 007°11'0 0.0
2017-Nov-16 02:00N 62°44' E 007°11'0 0.0
2017-Nov-16 01:30N 62°44' E 007°11'0 0.0
2017-Nov-16 01:00N 62°44' E 007°11'0 0.0
2017-Nov-16 00:30N 62°44' E 007°11'0 0.0
2017-Nov-16 00:00N 62°44' E 007°11'0 0.0
2017-Nov-15 23:30N 62°44' E 007°11'0 0.0
2017-Nov-15 23:00N 62°44' E 007°11'0 0.0
2017-Nov-15 22:27N 62°44' E 007°11'0 0.0
2017-Nov-15 22:00N 62°44' E 007°11'0 0.0
2017-Nov-15 21:30N 62°44' E 007°11'0 0.0
2017-Nov-15 21:00N 62°44' E 007°11'0 0.0
2017-Nov-15 20:30N 62°44' E 007°11'0 0.0
2017-Nov-15 20:00N 62°44' E 007°11'0 0.0
2017-Nov-15 19:30N 62°44' E 007°11'0 0.0
2017-Nov-15 19:00N 62°44' E 007°11'0 0.0
2017-Nov-15 18:30N 62°44' E 007°11'0 0.0
2017-Nov-15 17:57N 62°44' E 007°11'0 0.0
2017-Nov-15 17:30N 62°44' E 007°11'0 0.0
2017-Nov-15 17:00N 62°44' E 007°11'0 0.0
2017-Nov-15 16:30N 62°44' E 007°11'0 0.0
2017-Nov-15 16:00N 62°44' E 007°11'0 0.0
2017-Nov-15 15:30N 62°44' E 007°11'0 0.0
2017-Nov-15 14:57N 62°44' E 007°11'0 0.0
2017-Nov-15 14:30N 62°44' E 007°11'0 0.0
2017-Nov-15 14:00N 62°44' E 007°11'0 0.0
2017-Nov-15 13:30N 62°44' E 007°11'0 0.0
2017-Nov-15 13:00N 62°44' E 007°11'0 0.0
2017-Nov-15 12:30N 62°44' E 007°11'0 0.0
2017-Nov-15 12:00N 62°44' E 007°11'0 0.0
2017-Nov-15 11:30N 62°44' E 007°11'0 0.0
2017-Nov-15 11:00N 62°44' E 007°11'0 0.0
2017-Nov-15 10:30N 62°44' E 007°11'0 0.0
2017-Nov-15 09:57N 62°44' E 007°11'0 0.0
2017-Nov-15 09:30N 62°44' E 007°11'1 1.4
2017-Nov-15 09:00N 62°44' E 007°10'610.8
2017-Nov-15 08:30N 62°42' E 006°58'611.3
2017-Nov-15 08:00N 62°40' E 006°47'611.8
2017-Nov-15 07:29N 62°38' E 006°35'612.0
2017-Nov-15 07:00N 62°37' E 006°22'511.1
2017-Nov-15 06:30N 62°34' E 006°12'510.9
2017-Nov-15 06:00N 62°29' E 006°08'5 9.9
2017-Nov-15 05:30N 62°27' E 005°58'510.1
2017-Nov-15 05:00N 62°29' E 005°48'5 9.9
2017-Nov-15 04:30N 62°31' E 005°38'510.3
2017-Nov-15 04:00N 62°30' E 005°27'510.5
2017-Nov-15 03:30N 62°30' E 005°16'510.8
2017-Nov-15 03:00N 62°29' E 005°04'330 6.7
2017-Nov-13 02:00N 62°06' W 006°45'0 0.0
2017-Nov-13 01:30N 62°06' W 006°45'0 0.0
2017-Nov-13 01:00N 62°06' W 006°45'0 0.0
2017-Nov-13 00:30N 62°06' W 006°45'0 0.0
2017-Nov-13 00:00N 62°06' W 006°45'0 0.0
2017-Nov-12 23:30N 62°06' W 006°45'0 0.0
2017-Nov-12 23:00N 62°06' W 006°45'0 0.0
2017-Nov-12 22:30N 62°06' W 006°45'0 0.0
2017-Nov-12 22:00N 62°06' W 006°45'0 0.0
2017-Nov-12 21:30N 62°06' W 006°45'0 0.0
2017-Nov-12 21:00N 62°06' W 006°45'0 0.0
2017-Nov-12 20:27N 62°06' W 006°45'0 0.0
2017-Nov-12 20:00N 62°06' W 006°45'0 0.0
2017-Nov-12 19:30N 62°06' W 006°45'0 0.0
2017-Nov-12 19:00N 62°06' W 006°45'0 0.0
2017-Nov-12 18:30N 62°06' W 006°45'0 0.0
2017-Nov-12 18:00N 62°06' W 006°45'0 0.0
2017-Nov-12 17:27N 62°06' W 006°45'0 0.0
2017-Nov-12 17:00N 62°06' W 006°45'0 0.0
2017-Nov-12 16:30N 62°06' W 006°45'0 0.0
2017-Nov-12 15:48N 62°06' W 006°45'0 0.0
2017-Nov-12 15:30N 62°06' W 006°45'0 0.0
2017-Nov-12 15:00N 62°06' W 006°45'0 0.0
2017-Nov-12 14:30N 62°06' W 006°45'0 0.0
2017-Nov-12 14:00N 62°06' W 006°45'0 0.0
2017-Nov-12 13:30N 62°06' W 006°45'0 0.0
2017-Nov-12 13:00N 62°06' W 006°45'0 0.0
2017-Nov-12 12:30N 62°06' W 006°45'0 0.0
2017-Nov-12 12:00N 62°06' W 006°45'0 0.0
2017-Nov-12 11:30N 62°06' W 006°45'0 0.0
2017-Nov-12 11:00N 62°06' W 006°45'0 0.0
2017-Nov-12 10:30N 62°06' W 006°45'0 0.0
2017-Nov-12 10:00N 62°06' W 006°45'0 0.0
2017-Nov-12 09:30N 62°06' W 006°45'0 0.0
2017-Nov-12 09:00N 62°06' W 006°45'0 0.0
2017-Nov-12 08:30N 62°06' W 006°45'0 0.0
2017-Nov-12 08:00N 62°06' W 006°45'0 0.0
2017-Nov-12 07:30N 62°06' W 006°45'0 0.0
2017-Nov-12 07:00N 62°06' W 006°45'0 0.0
2017-Nov-12 06:30N 62°06' W 006°45'0 0.0
2017-Nov-12 06:00N 62°06' W 006°45'0 0.0
2017-Nov-12 05:30N 62°06' W 006°45'0 0.0
2017-Nov-12 05:00N 62°06' W 006°45'0 0.0
2017-Nov-12 04:30N 62°06' W 006°45'0 0.0
2017-Nov-12 04:00N 62°06' W 006°45'0 0.0
2017-Nov-12 03:30N 62°06' W 006°45'0 0.0
2017-Nov-12 03:00N 62°06' W 006°45'0 0.0
2017-Nov-12 02:30N 62°06' W 006°45'0 0.1
2017-Nov-12 02:00N 62°06' W 006°45'2 3.1
2017-Nov-12 01:30N 62°04' W 006°44'3 5.9
2017-Nov-12 01:00N 62°02' W 006°40'4 7.6
2017-Nov-12 00:30N 62°00' W 006°33'4 8.4
2017-Nov-12 00:00N 61°56' W 006°30'4 8.8
2017-Nov-11 23:30N 61°52' W 006°27'4 8.6
2017-Nov-11 23:00N 61°48' W 006°25'5 8.4
2017-Nov-11 22:27N 61°44' W 006°23'  
Track history (hours):
 
Tides and Currents Weather Stations Pressure Air Temp Water Temp Dewpoint Dewpoint Depression Visibility Wind Speed Wind Dir Waves Ship Positions

Wilson Dublin

Last reported at 2017-Nov-20 00:30 UTC. Time now 2017-Nov-20 06:06 UTC.
Position N 53°19' E 006°55'.

Length 88 m; draft 4.9 m.

Type: Cargo ship. MMSI: 305812000.

Date/timePositionNaut miles runAvg speedWind from/ knotsBaromVisibWave heightAir tempDewpointWater temp
2017-Nov-20 00:30N 53°19' E 006°55'1 1.1
2017-Nov-20 00:00N 53°19' E 006°56'1 1.5
2017-Nov-19 23:30N 53°19' E 006°56'0 0.9
2017-Nov-19 23:00N 53°19' E 006°57'2 3.8
2017-Nov-19 22:30N 53°20' E 007°00'811.3
2017-Nov-19 21:48N 53°27' E 006°54'  
2017-Nov-17 02:30N 61°54' E 004°25'3 5.1
2017-Nov-17 02:00N 61°56' E 004°27'3 5.5
2017-Nov-17 01:30N 61°59' E 004°28'3 5.2
2017-Nov-17 01:00N 62°01' E 004°30'3 5.1
2017-Nov-17 00:30N 62°03' E 004°33'2 4.9
2017-Nov-17 00:00N 62°05' E 004°37'2 4.7
2017-Nov-16 23:30N 62°07' E 004°40'2 4.7
2017-Nov-16 23:00N 62°09' E 004°43'2 4.5
2017-Nov-16 22:30N 62°11' E 004°46'2 4.5
2017-Nov-16 22:00N 62°12' E 004°49'2 4.4
2017-Nov-16 21:30N 62°14' E 004°51'2 4.7
2017-Nov-16 21:00N 62°16' E 004°55'2 4.5
2017-Nov-16 20:30N 62°17' E 004°58'2 4.5
2017-Nov-16 20:00N 62°19' E 005°01'3 5.1
2017-Nov-16 19:30N 62°21' E 005°05'3 5.3
2017-Nov-16 19:00N 62°22' E 005°10'3 6.3
2017-Nov-16 18:30N 62°24' E 005°16'3 6.6
2017-Nov-16 18:00N 62°26' E 005°22'3 5.9
2017-Nov-16 17:30N 62°27' E 005°27'3 6.7
2017-Nov-16 17:00N 62°29' E 005°34'3 7.1
2017-Nov-16 16:30N 62°31' E 005°40'4 8.1
2017-Nov-16 16:01N 62°29' E 005°48'4 8.8
2017-Nov-16 15:30N 62°27' E 005°57'4 7.3
2017-Nov-16 15:00N 62°28' E 006°04'4 8.5
2017-Nov-16 14:30N 62°32' E 006°09'4 8.6
2017-Nov-16 14:01N 62°35' E 006°15'4 8.1
2017-Nov-16 13:31N 62°38' E 006°22'5 9.7
2017-Nov-16 13:00N 62°38' E 006°33'510.1
2017-Nov-16 12:30N 62°40' E 006°43'510.2
2017-Nov-16 12:00N 62°41' E 006°54'510.2
2017-Nov-16 11:30N 62°43' E 007°04'3 6.8
2017-Nov-16 11:00N 62°44' E 007°11'0 0.0
2017-Nov-16 10:30N 62°44' E 007°11'0 0.0
2017-Nov-16 09:57N 62°44' E 007°11'0 0.0
2017-Nov-16 09:30N 62°44' E 007°11'0 0.0
2017-Nov-16 08:57N 62°44' E 007°11'0 0.0
2017-Nov-16 08:30N 62°44' E 007°11'0 0.0
2017-Nov-16 07:57N 62°44' E 007°11'0 0.0
2017-Nov-16 07:30N 62°44' E 007°11'0 0.0
2017-Nov-16 07:00N 62°44' E 007°11'0 0.0
2017-Nov-16 06:27N 62°44' E 007°11'0 0.0
2017-Nov-16 06:00N 62°44' E 007°11'0 0.0
2017-Nov-16 05:30N 62°44' E 007°11'0 0.0
2017-Nov-16 05:00N 62°44' E 007°11'0 0.0
2017-Nov-16 04:30N 62°44' E 007°11'0 0.0
2017-Nov-16 03:57N 62°44' E 007°11'0 0.0
2017-Nov-16 03:30N 62°44' E 007°11'0 0.0
2017-Nov-16 03:00N 62°44' E 007°11'0 0.0
2017-Nov-16 02:30N 62°44' E 007°11'0 0.0
2017-Nov-16 02:00N 62°44' E 007°11'0 0.0
2017-Nov-16 01:30N 62°44' E 007°11'0 0.0
2017-Nov-16 01:00N 62°44' E 007°11'0 0.0
2017-Nov-16 00:30N 62°44' E 007°11'0 0.0
2017-Nov-16 00:00N 62°44' E 007°11'0 0.0
2017-Nov-15 23:30N 62°44' E 007°11'0 0.0
2017-Nov-15 23:00N 62°44' E 007°11'0 0.0
2017-Nov-15 22:27N 62°44' E 007°11'0 0.0
2017-Nov-15 22:00N 62°44' E 007°11'0 0.0
2017-Nov-15 21:30N 62°44' E 007°11'0 0.0
2017-Nov-15 21:00N 62°44' E 007°11'0 0.0
2017-Nov-15 20:30N 62°44' E 007°11'0 0.0
2017-Nov-15 20:00N 62°44' E 007°11'0 0.0
2017-Nov-15 19:30N 62°44' E 007°11'0 0.0
2017-Nov-15 19:00N 62°44' E 007°11'0 0.0
2017-Nov-15 18:30N 62°44' E 007°11'0 0.0
2017-Nov-15 17:57N 62°44' E 007°11'0 0.0
2017-Nov-15 17:30N 62°44' E 007°11'0 0.0
2017-Nov-15 17:00N 62°44' E 007°11'0 0.0
2017-Nov-15 16:30N 62°44' E 007°11'0 0.0
2017-Nov-15 16:00N 62°44' E 007°11'0 0.0
2017-Nov-15 15:30N 62°44' E 007°11'0 0.0
2017-Nov-15 14:57N 62°44' E 007°11'0 0.0
2017-Nov-15 14:30N 62°44' E 007°11'0 0.0
2017-Nov-15 14:00N 62°44' E 007°11'0 0.0
2017-Nov-15 13:30N 62°44' E 007°11'0 0.0
2017-Nov-15 13:00N 62°44' E 007°11'0 0.0
2017-Nov-15 12:30N 62°44' E 007°11'0 0.0
2017-Nov-15 12:00N 62°44' E 007°11'0 0.0
2017-Nov-15 11:30N 62°44' E 007°11'0 0.0
2017-Nov-15 11:00N 62°44' E 007°11'0 0.0
2017-Nov-15 10:30N 62°44' E 007°11'0 0.0
2017-Nov-15 09:57N 62°44' E 007°11'0 0.0
2017-Nov-15 09:30N 62°44' E 007°11'1 1.4
2017-Nov-15 09:00N 62°44' E 007°10'610.8
2017-Nov-15 08:30N 62°42' E 006°58'611.3
2017-Nov-15 08:00N 62°40' E 006°47'611.8
2017-Nov-15 07:29N 62°38' E 006°35'612.0
2017-Nov-15 07:00N 62°37' E 006°22'511.1
2017-Nov-15 06:30N 62°34' E 006°12'510.9
2017-Nov-15 06:00N 62°29' E 006°08'5 9.9
2017-Nov-15 05:30N 62°27' E 005°58'510.1
2017-Nov-15 05:00N 62°29' E 005°48'5 9.9
2017-Nov-15 04:30N 62°31' E 005°38'510.3
2017-Nov-15 04:00N 62°30' E 005°27'510.5
2017-Nov-15 03:30N 62°30' E 005°16'510.8
2017-Nov-15 03:00N 62°29' E 005°04'330 6.7
2017-Nov-13 02:00N 62°06' W 006°45'0 0.0
2017-Nov-13 01:30N 62°06' W 006°45'0 0.0
2017-Nov-13 01:00N 62°06' W 006°45'0 0.0
2017-Nov-13 00:30N 62°06' W 006°45'0 0.0
2017-Nov-13 00:00N 62°06' W 006°45'0 0.0
2017-Nov-12 23:30N 62°06' W 006°45'0 0.0
2017-Nov-12 23:00N 62°06' W 006°45'0 0.0
2017-Nov-12 22:30N 62°06' W 006°45'0 0.0
2017-Nov-12 22:00N 62°06' W 006°45'0 0.0
2017-Nov-12 21:30N 62°06' W 006°45'0 0.0
2017-Nov-12 21:00N 62°06' W 006°45'0 0.0
2017-Nov-12 20:27N 62°06' W 006°45'0 0.0
2017-Nov-12 20:00N 62°06' W 006°45'0 0.0
2017-Nov-12 19:30N 62°06' W 006°45'0 0.0
2017-Nov-12 19:00N 62°06' W 006°45'0 0.0
2017-Nov-12 18:30N 62°06' W 006°45'0 0.0
2017-Nov-12 18:00N 62°06' W 006°45'0 0.0
2017-Nov-12 17:27N 62°06' W 006°45'0 0.0
2017-Nov-12 17:00N 62°06' W 006°45'0 0.0
2017-Nov-12 16:30N 62°06' W 006°45'0 0.0
2017-Nov-12 15:48N 62°06' W 006°45'0 0.0
2017-Nov-12 15:30N 62°06' W 006°45'0 0.0
2017-Nov-12 15:00N 62°06' W 006°45'0 0.0
2017-Nov-12 14:30N 62°06' W 006°45'0 0.0
2017-Nov-12 14:00N 62°06' W 006°45'0 0.0
2017-Nov-12 13:30N 62°06' W 006°45'0 0.0
2017-Nov-12 13:00N 62°06' W 006°45'0 0.0
2017-Nov-12 12:30N 62°06' W 006°45'0 0.0
2017-Nov-12 12:00N 62°06' W 006°45'0 0.0
2017-Nov-12 11:30N 62°06' W 006°45'0 0.0
2017-Nov-12 11:00N 62°06' W 006°45'0 0.0
2017-Nov-12 10:30N 62°06' W 006°45'0 0.0
2017-Nov-12 10:00N 62°06' W 006°45'0 0.0
2017-Nov-12 09:30N 62°06' W 006°45'0 0.0
2017-Nov-12 09:00N 62°06' W 006°45'0 0.0
2017-Nov-12 08:30N 62°06' W 006°45'0 0.0
2017-Nov-12 08:00N 62°06' W 006°45'0 0.0
2017-Nov-12 07:30N 62°06' W 006°45'0 0.0
2017-Nov-12 07:00N 62°06' W 006°45'0 0.0
2017-Nov-12 06:30N 62°06' W 006°45'0 0.0
2017-Nov-12 06:00N 62°06' W 006°45'0 0.0
2017-Nov-12 05:30N 62°06' W 006°45'0 0.0
2017-Nov-12 05:00N 62°06' W 006°45'0 0.0
2017-Nov-12 04:30N 62°06' W 006°45'0 0.0
2017-Nov-12 04:00N 62°06' W 006°45'0 0.0
2017-Nov-12 03:30N 62°06' W 006°45'0 0.0
2017-Nov-12 03:00N 62°06' W 006°45'0 0.0
2017-Nov-12 02:30N 62°06' W 006°45'0 0.1
2017-Nov-12 02:00N 62°06' W 006°45'2 3.1
2017-Nov-12 01:30N 62°04' W 006°44'3 5.9
2017-Nov-12 01:00N 62°02' W 006°40'4 7.6
2017-Nov-12 00:30N 62°00' W 006°33'4 8.4
2017-Nov-12 00:00N 61°56' W 006°30'4 8.8
2017-Nov-11 23:30N 61°52' W 006°27'4 8.6
2017-Nov-11 23:00N 61°48' W 006°25'5 8.4
2017-Nov-11 22:27N 61°44' W 006°23'  

Dump ship's entire track history